Terminal Aerodrome Forecast
Issued by NWS Wilmington, OH

Home | Current Version | Previous Version | Text Only | Print | Product List | Glossary On
Versions: 1 2 3 4 5 6 7 8 9 10 11 12 13 14 15 16 17 18 19 20 21 22 23 24
000
FTUS41 KILN 301700
TAFCVG
TAF
KCVG 301737Z 3018/0124 33010KT P6SM BKN070
     FM302100 35006KT P6SM SCT070
     FM010000 VRB03KT P6SM SCT250
      TEMPO 0109/0111 5SM BR=

USA.gov is the U.S. government's official web portal to all federal, state and local government web resources and services.